Terminal Aerodrome Forecast
Issued by NWS

Home | Current Version | Previous Version | Text Only | Print | Product List | Glossary On
Versions: 1 2 3 4 5 6 7 8 9 10 11 12 13 14 15 16
625
FTUS45 KVEF 221725
TAFDAG
TAF
KDAG 221725Z 2218/2318 VRB06KT P6SM -RA SCT030 OVC060
      TEMPO 2218/2222 5SM RA BKN040
     FM222200 11011KT P6SM -RA SCT030 OVC050
     FM230200 22015G25KT P6SM -RA SCT030 BKN060
     FM230800 24024G34KT P6SM SCT030 BKN080=

USA.gov is the U.S. government's official web portal to all federal, state and local government web resources and services.